Time;durP1;ratioP1;P1;durP2;ratioP2;P2;SDS_P1;SDS_P2;PMS_P1;PMS_P2;Temp;Humidity;BMP_temperature;BMP_pressure;BME280_temperature;BME280_humidity;BME280_pressure;Samples;Min_cycle;Max_cycle;Signal;HPM_P1;HPM_P2
2023/01/07 00:01:29;;;;;;;3.80;1.80;;;22.30;63.60;;;;;;4935171;29;20674;-77
2023/01/07 00:03:59;;;;;;;4.57;2.00;;;22.20;63.60;;;;;;4922604;29;20550;-77
2023/01/07 00:06:29;;;;;;;2.60;1.93;;;22.30;63.60;;;;;;4928214;29;20475;-78
2023/01/07 00:08:58;;;;;;;1.97;1.77;;;22.20;63.70;;;;;;4931624;29;20487;-77
2023/01/07 00:11:27;;;;;;;2.07;1.87;;;22.20;63.70;;;;;;4938304;29;20567;-77
2023/01/07 00:13:57;;;;;;;1.80;1.70;;;22.30;63.70;;;;;;4933895;29;20499;-77
2023/01/07 00:16:31;;;;;;;2.20;1.63;;;22.20;63.70;;;;;;4936048;29;20581;-77
2023/01/07 00:19:01;;;;;;;2.00;1.63;;;22.30;63.70;;;;;;4921205;29;20467;-77
2023/01/07 00:21:30;;;;;;;2.33;2.00;;;22.30;63.80;;;;;;4918183;29;20532;-77
2023/01/07 00:23:59;;;;;;;1.97;1.87;;;22.30;63.70;;;;;;4927961;29;20558;-77
2023/01/07 00:26:31;;;;;;;3.37;2.00;;;22.30;63.70;;;;;;4935749;29;20562;-77
2023/01/07 00:28:59;;;;;;;2.30;2.10;;;22.40;63.70;;;;;;4936951;29;20560;-77
2023/01/07 00:31:31;;;;;;;2.80;2.03;;;22.40;63.60;;;;;;4937429;29;20476;-77
2023/01/07 00:34:08;;;;;;;1.77;1.67;;;22.40;63.50;;;;;;4935132;29;20555;-77
2023/01/07 00:36:40;;;;;;;2.30;2.03;;;22.40;63.40;;;;;;4935940;29;20488;-77
2023/01/07 00:39:11;;;;;;;1.70;1.60;;;22.40;63.40;;;;;;4935028;29;20500;-77
2023/01/07 00:41:39;;;;;;;2.30;2.10;;;22.40;63.30;;;;;;4936603;29;20486;-77
2023/01/07 00:44:09;;;;;;;2.20;2.00;;;22.40;63.30;;;;;;4937283;29;20983;-77
2023/01/07 00:46:38;;;;;;;3.57;1.80;;;22.40;63.30;;;;;;4933152;29;21055;-77
2023/01/07 00:49:06;;;;;;;3.10;1.73;;;22.40;63.20;;;;;;4918857;29;20430;-77
2023/01/07 00:51:34;;;;;;;2.33;1.50;;;22.40;63.20;;;;;;4920514;29;20493;-77
2023/01/07 00:54:03;;;;;;;2.80;1.50;;;22.40;63.20;;;;;;4934005;29;20463;-77
2023/01/07 00:56:32;;;;;;;1.80;1.70;;;22.40;63.20;;;;;;4932228;29;20556;-77
2023/01/07 00:59:00;;;;;;;2.00;1.90;;;22.40;63.20;;;;;;4920801;29;20467;-77
2023/01/07 01:01:29;;;;;;;1.77;1.67;;;22.40;63.30;;;;;;4936761;29;20456;-77
2023/01/07 01:03:58;;;;;;;1.70;1.53;;;22.40;63.30;;;;;;4934316;29;20500;-77
2023/01/07 01:06:26;;;;;;;1.80;1.70;;;22.30;63.30;;;;;;4935893;29;20494;-77
2023/01/07 01:08:55;;;;;;;1.50;1.40;;;22.30;63.40;;;;;;4935366;29;20453;-77
2023/01/07 01:11:23;;;;;;;1.40;1.30;;;22.30;63.40;;;;;;4937453;29;20445;-77
2023/01/07 01:13:52;;;;;;;1.77;1.67;;;22.30;63.40;;;;;;4934334;29;20530;-77
2023/01/07 01:16:20;;;;;;;1.57;1.47;;;22.30;63.40;;;;;;4935672;29;20476;-77
2023/01/07 01:18:49;;;;;;;1.37;1.27;;;22.30;63.40;;;;;;4932775;29;20982;-76
2023/01/07 01:21:18;;;;;;;1.90;1.70;;;22.30;63.40;;;;;;4936107;29;20495;-76
2023/01/07 01:23:46;;;;;;;1.80;1.50;;;22.30;63.40;;;;;;4932843;29;20947;-77
2023/01/07 01:26:17;;;;;;;2.20;2.00;;;22.30;63.40;;;;;;4917761;29;20496;-77
2023/01/07 01:28:46;;;;;;;1.77;1.67;;;22.20;63.40;;;;;;4916417;29;21323;-77
2023/01/07 01:31:19;;;;;;;2.03;1.83;;;22.20;63.40;;;;;;4918591;29;20567;-77
2023/01/07 01:33:53;;;;;;;1.57;1.40;;;22.20;63.50;;;;;;4935643;29;20477;-77
2023/01/07 01:36:23;;;;;;;1.43;1.20;;;22.20;63.50;;;;;;4934294;29;20457;-76
2023/01/07 01:38:53;;;;;;;1.97;1.87;;;22.20;63.50;;;;;;4926643;29;20552;-77
2023/01/07 01:41:21;;;;;;;2.00;1.60;;;22.30;63.50;;;;;;4933677;29;20581;-77
2023/01/07 01:43:52;;;;;;;1.27;1.17;;;22.30;63.50;;;;;;4929302;29;20473;-77
2023/01/07 01:46:27;;;;;;;1.40;1.30;;;22.30;63.40;;;;;;4928828;29;20498;-77
2023/01/07 01:48:58;;;;;;;1.63;1.53;;;22.30;63.40;;;;;;4933860;29;20471;-77
2023/01/07 01:51:33;;;;;;;1.57;1.43;;;22.30;63.40;;;;;;4934752;29;20525;-77
2023/01/07 01:54:03;;;;;;;3.10;1.90;;;22.30;63.40;;;;;;4934879;29;21037;-77
2023/01/07 01:56:35;;;;;;;1.33;1.23;;;22.30;63.40;;;;;;4933848;29;20571;-77
2023/01/07 01:59:06;;;;;;;1.50;1.40;;;22.30;63.30;;;;;;4933567;29;20453;-78
2023/01/07 02:01:37;;;;;;;1.70;1.60;;;22.30;63.30;;;;;;4951850;29;20519;-77
2023/01/07 02:04:13;;;;;;;1.47;1.37;;;22.30;63.30;;;;;;4932427;29;20464;-77
2023/01/07 02:06:50;;;;;;;1.27;1.17;;;22.30;63.30;;;;;;4943067;29;20491;-77
2023/01/07 02:09:18;;;;;;;1.67;1.57;;;22.30;63.30;;;;;;4927992;29;20535;-77
2023/01/07 02:11:55;;;;;;;1.57;1.47;;;22.30;63.30;;;;;;4931970;29;20461;-77
2023/01/07 02:14:49;;;;;;;1.63;1.53;;;22.30;63.30;;;;;;4929726;29;20583;-77
2023/01/07 02:17:26;;;;;;;1.60;1.50;;;22.30;63.40;;;;;;4933844;29;20548;-77
2023/01/07 02:20:18;;;;;;;1.40;1.30;;;22.30;63.40;;;;;;4935126;29;20842;-77
2023/01/07 02:23:22;;;;;;;1.50;1.20;;;22.30;63.30;;;;;;4936020;29;20437;-77
2023/01/07 02:26:19;;;;;;;1.70;1.60;;;22.30;63.30;;;;;;4899248;29;20548;-77
2023/01/07 02:29:22;;;;;;;1.97;1.47;;;22.40;63.30;;;;;;4929464;29;20463;-77
2023/01/07 02:32:17;;;;;;;2.37;1.80;;;22.40;63.20;;;;;;4931960;29;20569;-77
2023/01/07 02:34:58;;;;;;;1.43;1.40;;;22.40;63.20;;;;;;4934314;29;20856;-77
2023/01/07 02:37:35;;;;;;;1.53;1.43;;;22.40;63.20;;;;;;4933943;29;20457;-77
2023/01/07 02:40:10;;;;;;;1.70;1.60;;;22.40;63.20;;;;;;4936642;29;20468;-77
2023/01/07 02:42:47;;;;;;;1.30;1.20;;;22.40;63.20;;;;;;4933400;29;20520;-77
2023/01/07 02:45:20;;;;;;;1.00;1.00;;;22.30;63.20;;;;;;4934105;29;20468;-77
2023/01/07 02:47:54;;;;;;;1.83;1.50;;;22.40;63.20;;;;;;4926471;29;20538;-77
2023/01/07 02:50:22;;;;;;;1.60;1.50;;;22.30;63.20;;;;;;4933748;29;20474;-77
2023/01/07 02:52:51;;;;;;;1.40;1.30;;;22.30;63.20;;;;;;4935181;29;20892;-77
2023/01/07 02:55:22;;;;;;;1.80;1.40;;;22.30;63.20;;;;;;4931380;29;20511;-79
2023/01/07 02:58:22;;;;;;;1.50;1.40;;;22.30;63.20;;;;;;4933831;29;20955;-76
2023/01/07 03:01:17;;;;;;;1.60;1.43;;;22.30;63.20;;;;;;4920762;29;20540;-76
2023/01/07 03:04:06;;;;;;;1.23;1.13;;;22.30;63.20;;;;;;4921810;29;20520;-76
2023/01/07 03:06:49;;;;;;;1.40;1.30;;;22.30;63.20;;;;;;4916332;29;20779;-76
2023/01/07 03:09:27;;;;;;;1.47;1.37;;;22.30;63.20;;;;;;4927783;29;20461;-77
2023/01/07 03:12:00;;;;;;;1.30;1.20;;;22.30;63.20;;;;;;4931751;29;20810;-76
2023/01/07 03:14:38;;;;;;;2.30;1.20;;;22.30;63.20;;;;;;4914094;29;20504;-76
2023/01/07 03:17:09;;;;;;;1.47;1.37;;;22.30;63.20;;;;;;4920126;29;20463;-76
2023/01/07 03:19:43;;;;;;;1.23;1.23;;;22.30;63.20;;;;;;4934321;29;20470;-76
2023/01/07 03:22:12;;;;;;;1.33;1.30;;;22.30;63.20;;;;;;4934171;29;20551;-76
2023/01/07 03:24:42;;;;;;;1.80;1.50;;;22.30;63.20;;;;;;4920952;29;20552;-76
2023/01/07 03:27:11;;;;;;;1.30;1.20;;;22.30;63.20;;;;;;4934788;29;20489;-76
2023/01/07 03:29:39;;;;;;;0.90;0.90;;;22.40;63.10;;;;;;4933113;29;20497;-77
2023/01/07 03:32:11;;;;;;;1.30;1.20;;;22.40;63.10;;;;;;4928145;29;20556;-76
2023/01/07 03:34:42;;;;;;;1.50;1.40;;;22.40;63.10;;;;;;4932456;29;20494;-76
2023/01/07 03:37:13;;;;;;;1.47;1.37;;;22.30;63.10;;;;;;4929380;29;20467;-77
2023/01/07 03:39:44;;;;;;;1.10;1.10;;;22.40;63.10;;;;;;4934571;29;20514;-76
2023/01/07 03:45:00;;;;;;;1.07;1.00;;;22.30;63.10;;;;;;4930103;29;20477;-77
2023/01/07 03:47:31;;;;;;;1.10;1.10;;;22.30;63.10;;;;;;4930638;29;20547;-77
2023/01/07 03:50:02;;;;;;;1.30;1.20;;;22.30;63.10;;;;;;4934378;29;20473;-76
2023/01/07 03:52:30;;;;;;;1.17;1.17;;;22.30;63.10;;;;;;4933583;29;20551;-76
2023/01/07 03:54:59;;;;;;;1.00;0.90;;;22.30;63.10;;;;;;4929657;29;20489;-76
2023/01/07 03:57:28;;;;;;;1.50;1.40;;;22.30;63.10;;;;;;4933301;29;20448;-76
2023/01/07 03:59:56;;;;;;;1.30;1.20;;;22.30;63.10;;;;;;4933001;29;20456;-76
2023/01/07 04:02:25;;;;;;;1.30;1.20;;;22.30;63.10;;;;;;4933933;29;20463;-77
2023/01/07 04:04:53;;;;;;;0.93;0.93;;;22.30;63.10;;;;;;4932765;29;20463;-77
2023/01/07 04:07:23;;;;;;;1.40;1.30;;;22.30;63.10;;;;;;4932776;29;20816;-77
2023/01/07 04:09:51;;;;;;;1.20;1.10;;;22.30;63.10;;;;;;4933676;29;20511;-76
2023/01/07 04:12:19;;;;;;;1.53;1.40;;;22.30;63.10;;;;;;4934252;29;20441;-76
2023/01/07 04:14:47;;;;;;;0.80;0.80;;;22.40;63.00;;;;;;4934958;29;20502;-77
2023/01/07 04:17:16;;;;;;;1.10;1.10;;;22.40;63.00;;;;;;4934097;29;20453;-76
2023/01/07 04:19:44;;;;;;;1.10;1.00;;;22.40;63.00;;;;;;4919625;29;20472;-77
2023/01/07 04:22:12;;;;;;;1.10;1.10;;;22.40;63.00;;;;;;4920144;29;20468;-76
2023/01/07 04:24:42;;;;;;;1.10;1.10;;;22.40;63.00;;;;;;4938021;29;20499;-78
2023/01/07 04:27:13;;;;;;;1.07;1.07;;;22.40;63.00;;;;;;4929984;29;20457;-76
2023/01/07 04:29:41;;;;;;;1.00;1.00;;;22.40;63.00;;;;;;4917564;29;20453;-77
2023/01/07 04:32:09;;;;;;;1.13;1.10;;;22.40;63.00;;;;;;4927124;29;20476;-76
2023/01/07 04:34:37;;;;;;;1.33;1.20;;;22.30;63.00;;;;;;4936969;29;20547;-77
2023/01/07 04:37:06;;;;;;;0.90;0.90;;;22.30;63.00;;;;;;4936814;29;20473;-76
2023/01/07 04:39:34;;;;;;;1.10;1.10;;;22.30;62.90;;;;;;4937031;29;20540;-77
2023/01/07 04:42:04;;;;;;;1.53;1.43;;;22.30;63.00;;;;;;4933962;29;20485;-77
2023/01/07 04:44:32;;;;;;;0.90;0.90;;;22.30;63.00;;;;;;4936200;29;20455;-76
2023/01/07 04:47:00;;;;;;;1.47;1.27;;;22.30;63.00;;;;;;4937802;29;20477;-76
2023/01/07 04:49:28;;;;;;;1.07;1.07;;;22.30;63.00;;;;;;4934798;29;20463;-76
2023/01/07 04:51:58;;;;;;;1.40;1.10;;;22.30;63.00;;;;;;4936660;29;21054;-76
2023/01/07 04:54:26;;;;;;;1.23;1.13;;;22.30;63.00;;;;;;4936401;29;20472;-76
2023/01/07 04:56:55;;;;;;;1.03;1.03;;;22.30;63.00;;;;;;4937239;29;20452;-76
2023/01/07 04:59:25;;;;;;;1.50;1.40;;;22.30;63.00;;;;;;4932178;29;20576;-76
2023/01/07 05:01:53;;;;;;;0.90;0.90;;;22.30;63.00;;;;;;4936238;29;20484;-78
2023/01/07 05:04:22;;;;;;;1.67;1.57;;;22.30;63.00;;;;;;4932755;29;20495;-76
2023/01/07 05:06:50;;;;;;;1.23;1.23;;;22.30;63.00;;;;;;4936225;29;20465;-76
2023/01/07 05:09:19;;;;;;;0.90;0.90;;;22.30;63.00;;;;;;4934515;29;20543;-76
2023/01/07 05:11:47;;;;;;;1.13;0.97;;;22.30;62.90;;;;;;4942793;28;20472;-77
2023/01/07 05:14:15;;;;;;;0.80;0.80;;;22.30;62.90;;;;;;4931357;29;20547;-77
2023/01/07 05:16:45;;;;;;;1.00;1.00;;;22.40;62.90;;;;;;4934312;29;20457;-77
2023/01/07 05:19:13;;;;;;;1.27;1.10;;;22.40;62.90;;;;;;4936085;29;20539;-77
2023/01/07 05:21:46;;;;;;;0.97;0.97;;;22.40;62.80;;;;;;4934740;29;20967;-77
2023/01/07 05:24:15;;;;;;;1.23;1.13;;;22.40;62.80;;;;;;4935280;29;20456;-77
2023/01/07 05:26:44;;;;;;;1.40;1.30;;;22.40;62.90;;;;;;4935953;29;21142;-77
2023/01/07 05:29:13;;;;;;;0.97;0.97;;;22.40;62.90;;;;;;4935572;29;20466;-77
2023/01/07 05:31:44;;;;;;;1.10;1.10;;;22.40;62.90;;;;;;4930711;29;20524;-78
2023/01/07 05:34:13;;;;;;;1.20;1.10;;;22.40;62.90;;;;;;4932936;29;20487;-77
2023/01/07 05:36:43;;;;;;;1.23;1.13;;;22.40;62.90;;;;;;4934516;29;20469;-77
2023/01/07 05:39:12;;;;;;;1.40;1.30;;;22.40;62.90;;;;;;4920812;29;20458;-77
2023/01/07 05:41:40;;;;;;;1.00;1.00;;;22.40;62.80;;;;;;4934450;29;20505;-77
2023/01/07 05:44:09;;;;;;;1.00;1.00;;;22.40;62.80;;;;;;4934935;29;20982;-77
2023/01/07 05:46:37;;;;;;;1.00;0.90;;;22.40;62.80;;;;;;4936698;29;20456;-77
2023/01/07 05:49:06;;;;;;;1.30;1.20;;;22.40;62.80;;;;;;4936812;29;22026;-77
2023/01/07 05:51:35;;;;;;;1.00;1.00;;;22.40;62.80;;;;;;4935131;29;20860;-77
2023/01/07 05:54:03;;;;;;;1.00;1.00;;;22.40;62.80;;;;;;4936400;29;20921;-77
2023/01/07 05:56:32;;;;;;;2.70;1.40;;;22.40;62.60;;;;;;4936980;29;20528;-77
2023/01/07 05:59:00;;;;;;;1.30;1.20;;;22.40;62.60;;;;;;4935747;29;20763;-77
2023/01/07 06:01:28;;;;;;;1.20;1.10;;;22.40;62.60;;;;;;4932120;29;21561;-77
2023/01/07 06:03:57;;;;;;;0.90;0.90;;;22.40;62.60;;;;;;4935326;29;20440;-77
2023/01/07 06:06:26;;;;;;;1.13;1.03;;;22.40;62.70;;;;;;4936550;29;20448;-77
2023/01/07 06:08:54;;;;;;;1.10;1.10;;;22.40;62.70;;;;;;4936166;29;20448;-77
2023/01/07 06:11:23;;;;;;;1.20;1.10;;;22.30;62.70;;;;;;4936231;29;20491;-77
2023/01/07 06:13:51;;;;;;;0.80;0.80;;;22.30;62.70;;;;;;4935331;29;20574;-77
2023/01/07 06:16:19;;;;;;;2.40;1.00;;;22.30;62.70;;;;;;4935886;29;20583;-77
2023/01/07 06:18:47;;;;;;;1.37;1.27;;;22.30;62.70;;;;;;4935792;29;20979;-77
2023/01/07 06:21:17;;;;;;;1.20;1.20;;;22.30;62.70;;;;;;4936087;29;20839;-77
2023/01/07 06:23:46;;;;;;;1.20;1.10;;;22.30;62.80;;;;;;4936469;29;20477;-77
2023/01/07 06:26:14;;;;;;;0.87;0.87;;;22.30;62.80;;;;;;4936149;29;20440;-77
2023/01/07 06:28:42;;;;;;;1.03;1.03;;;22.30;62.80;;;;;;4934743;29;20931;-77
2023/01/07 06:31:11;;;;;;;1.20;1.10;;;22.20;62.80;;;;;;4934981;29;20468;-77
2023/01/07 06:33:39;;;;;;;1.73;1.63;;;22.20;62.80;;;;;;4925937;29;20460;-77
2023/01/07 06:36:08;;;;;;;1.13;1.10;;;22.20;62.80;;;;;;4923389;29;20508;-77
2023/01/07 06:38:36;;;;;;;1.50;1.40;;;22.20;62.80;;;;;;4935697;29;20469;-77
2023/01/07 06:41:09;;;;;;;1.37;1.27;;;22.20;62.80;;;;;;4934744;29;20484;-77
2023/01/07 06:43:37;;;;;;;1.10;1.00;;;22.20;62.80;;;;;;4934723;29;20988;-77
2023/01/07 06:46:05;;;;;;;0.80;0.80;;;22.20;62.80;;;;;;4929930;29;20596;-77
2023/01/07 06:48:33;;;;;;;0.90;0.90;;;22.20;62.90;;;;;;4929199;29;20499;-77
2023/01/07 06:51:01;;;;;;;1.00;1.00;;;22.20;62.80;;;;;;4933699;29;20537;-77
2023/01/07 06:53:30;;;;;;;1.23;1.23;;;22.30;62.80;;;;;;4935108;29;20451;-77
2023/01/07 06:55:58;;;;;;;1.03;1.03;;;22.30;62.80;;;;;;4935383;29;20663;-77
2023/01/07 06:58:27;;;;;;;1.20;1.13;;;22.30;62.80;;;;;;4928893;29;20512;-77
2023/01/07 07:00:55;;;;;;;0.80;0.80;;;22.30;62.80;;;;;;4927003;29;20488;-75
2023/01/07 07:03:24;;;;;;;1.27;1.17;;;22.30;62.70;;;;;;4929684;29;20461;-72
2023/01/07 07:05:52;;;;;;;1.67;0.90;;;22.30;62.70;;;;;;4934155;29;20451;-76
2023/01/07 07:08:20;;;;;;;0.90;0.90;;;22.30;62.70;;;;;;4934322;29;20796;-76
2023/01/07 07:10:48;;;;;;;1.20;1.20;;;22.30;62.70;;;;;;4930423;29;20566;-76
2023/01/07 07:13:16;;;;;;;1.20;1.20;;;22.30;62.70;;;;;;4932247;29;20491;-76
2023/01/07 07:15:46;;;;;;;1.00;1.00;;;22.30;62.70;;;;;;4933024;29;20567;-76
2023/01/07 07:18:14;;;;;;;0.90;0.90;;;22.40;62.60;;;;;;4931244;29;20471;-75
2023/01/07 07:20:42;;;;;;;1.00;1.00;;;22.30;62.70;;;;;;4933139;29;20468;-76
2023/01/07 07:23:10;;;;;;;1.10;1.10;;;22.30;62.70;;;;;;4932168;29;20491;-75
2023/01/07 07:25:38;;;;;;;0.90;0.90;;;22.30;62.70;;;;;;4934574;29;20475;-75
2023/01/07 07:28:07;;;;;;;1.00;1.00;;;22.30;62.70;;;;;;4933436;29;20531;-76
2023/01/07 07:30:36;;;;;;;1.17;1.17;;;22.30;62.80;;;;;;4915313;29;20500;-75
2023/01/07 07:33:17;;;;;;;1.33;1.23;;;22.30;62.80;;;;;;4919306;29;20881;-76
2023/01/07 07:35:46;;;;;;;1.27;1.10;;;22.30;62.90;;;;;;4932497;29;20468;-76
2023/01/07 07:38:16;;;;;;;1.20;1.10;;;22.30;62.90;;;;;;4927643;29;20560;-76
2023/01/07 07:40:47;;;;;;;0.97;0.97;;;22.30;62.90;;;;;;4930115;29;20578;-76
2023/01/07 07:43:16;;;;;;;3.90;1.60;;;22.30;62.90;;;;;;4932142;29;20966;-77
2023/01/07 07:45:44;;;;;;;1.13;1.03;;;22.30;62.90;;;;;;4921233;29;20461;-77
2023/01/07 07:48:17;;;;;;;1.30;1.20;;;22.30;62.90;;;;;;4924236;29;20500;-77
2023/01/07 07:50:51;;;;;;;7.00;1.27;;;22.30;63.00;;;;;;4927776;29;20974;-76
2023/01/07 07:53:20;;;;;;;2.00;1.23;;;22.20;63.20;;;;;;4926520;29;20615;-76
2023/01/07 07:55:48;;;;;;;1.67;1.57;;;22.30;63.20;;;;;;4928464;29;20546;-76
2023/01/07 07:58:17;;;;;;;2.20;2.00;;;22.30;63.20;;;;;;4928122;29;20475;-75
2023/01/07 08:00:46;;;;;;;2.03;1.20;;;22.30;63.20;;;;;;4935067;29;20511;-77
2023/01/07 08:03:14;;;;;;;1.90;1.50;;;22.30;63.20;;;;;;4928772;29;20547;-77
2023/01/07 08:05:43;;;;;;;1.83;1.43;;;22.30;63.20;;;;;;4929788;29;20496;-75
2023/01/07 08:08:15;;;;;;;4.00;1.50;;;22.30;63.20;;;;;;4932411;29;21042;-76
2023/01/07 08:10:43;;;;;;;1.87;1.60;;;22.30;63.20;;;;;;4935342;29;20533;-76
2023/01/07 08:13:12;;;;;;;2.70;1.60;;;22.30;63.20;;;;;;4937545;29;20954;-76
2023/01/07 08:15:40;;;;;;;1.73;1.43;;;22.30;63.20;;;;;;4936906;29;20574;-78
2023/01/07 08:18:10;;;;;;;4.57;1.27;;;22.40;63.20;;;;;;4936329;29;20559;-76
2023/01/07 08:20:39;;;;;;;4.13;1.70;;;22.40;63.10;;;;;;4936705;29;21027;-76
2023/01/07 08:23:08;;;;;;;3.73;2.40;;;22.40;63.10;;;;;;4933844;29;20544;-77
2023/01/07 08:25:38;;;;;;;2.53;2.17;;;22.40;62.90;;;;;;4930067;29;20475;-77
2023/01/07 08:28:06;;;;;;;2.00;1.30;;;22.40;62.90;;;;;;4930166;29;20452;-77
2023/01/07 08:30:34;;;;;;;2.53;1.30;;;22.40;62.80;;;;;;4931625;29;20535;-77
2023/01/07 08:33:06;;;;;;;3.03;2.20;;;22.40;62.80;;;;;;4930067;29;20559;-77
2023/01/07 08:35:35;;;;;;;4.50;1.40;;;22.50;62.80;;;;;;4931553;29;20543;-77
2023/01/07 08:38:05;;;;;;;3.00;1.37;;;22.50;62.80;;;;;;4934067;29;20551;-77
2023/01/07 08:40:34;;;;;;;1.97;1.67;;;22.40;62.80;;;;;;4937599;29;20496;-77
2023/01/07 08:43:05;;;;;;;2.30;1.60;;;22.40;62.80;;;;;;4936990;29;20468;-77
2023/01/07 08:45:33;;;;;;;5.93;1.70;;;22.40;62.80;;;;;;4937317;29;20480;-77
2023/01/07 08:48:01;;;;;;;2.70;1.50;;;22.40;62.80;;;;;;4936653;29;20527;-77
2023/01/07 08:50:31;;;;;;;2.03;1.23;;;22.40;62.80;;;;;;4936859;29;20934;-77
2023/01/07 08:53:00;;;;;;;1.43;1.23;;;22.40;62.60;;;;;;4936128;29;20456;-77
2023/01/07 08:55:28;;;;;;;1.70;1.27;;;22.40;62.60;;;;;;4938093;29;20455;-77
2023/01/07 08:57:56;;;;;;;2.20;1.70;;;22.40;62.70;;;;;;4934477;29;20513;-77
2023/01/07 09:00:26;;;;;;;1.43;1.33;;;22.30;62.80;;;;;;4920331;29;20953;-77
2023/01/07 09:02:54;;;;;;;1.40;1.37;;;22.30;62.80;;;;;;4936654;29;20457;-77
2023/01/07 09:05:23;;;;;;;1.37;1.03;;;22.30;62.80;;;;;;4932143;29;20457;-77
2023/01/07 09:07:53;;;;;;;2.00;1.40;;;22.30;62.80;;;;;;4931826;29;20505;-77
2023/01/07 09:10:21;;;;;;;2.80;1.57;;;22.30;62.80;;;;;;4924972;29;20455;-77
2023/01/07 09:12:50;;;;;;;1.77;1.20;;;22.30;62.80;;;;;;4936165;29;20571;-77
2023/01/07 09:15:18;;;;;;;1.60;1.50;;;22.30;62.80;;;;;;4931446;29;20456;-77
2023/01/07 09:17:47;;;;;;;2.13;1.40;;;22.30;62.80;;;;;;4933174;29;20512;-77
2023/01/07 09:20:16;;;;;;;1.20;1.10;;;22.30;62.90;;;;;;4936090;29;20444;-77
2023/01/07 09:22:44;;;;;;;1.73;1.20;;;22.30;62.90;;;;;;4934465;29;20515;-77
2023/01/07 09:25:13;;;;;;;1.50;1.40;;;22.30;62.90;;;;;;4936902;29;20518;-77
2023/01/07 09:27:42;;;;;;;1.53;1.13;;;22.30;62.90;;;;;;4935284;29;20791;-77
2023/01/07 09:30:11;;;;;;;3.77;1.10;;;22.40;62.90;;;;;;4937319;29;20933;-77
2023/01/07 09:32:39;;;;;;;2.00;1.50;;;22.40;62.80;;;;;;4931455;29;20452;-77
2023/01/07 09:35:09;;;;;;;3.20;1.30;;;22.40;62.80;;;;;;4935668;29;20451;-76
2023/01/07 09:37:38;;;;;;;1.40;1.30;;;22.40;62.80;;;;;;4933544;29;20789;-77
2023/01/07 09:40:09;;;;;;;1.33;1.13;;;22.50;62.60;;;;;;4916115;29;20801;-76
2023/01/07 09:42:43;;;;;;;1.37;1.27;;;22.50;62.60;;;;;;4932290;29;20503;-77
2023/01/07 09:45:16;;;;;;;1.80;1.40;;;22.50;62.60;;;;;;4934902;29;20519;-76
2023/01/07 09:47:51;;;;;;;1.13;1.03;;;22.50;62.60;;;;;;4932861;29;20977;-77
2023/01/07 09:50:31;;;;;;;1.00;1.00;;;22.50;62.60;;;;;;4932747;29;20476;-77
2023/01/07 09:53:04;;;;;;;1.53;1.17;;;22.50;62.60;;;;;;4930140;29;20460;-76
2023/01/07 09:55:35;;;;;;;1.43;1.23;;;22.50;62.40;;;;;;4935542;29;20476;-77
2023/01/07 09:58:04;;;;;;;1.63;1.23;;;22.50;62.40;;;;;;4934450;29;20523;-76
2023/01/07 10:00:35;;;;;;;2.03;1.40;;;22.50;62.40;;;;;;4917104;29;20524;-76
2023/01/07 10:03:17;;;;;;;3.60;1.53;;;22.50;62.40;;;;;;4927977;29;20489;-76
2023/01/07 10:06:01;;;;;;;1.43;1.30;;;22.50;62.60;;;;;;4917697;29;20515;-76
2023/01/07 10:08:38;;;;;;;1.00;1.00;;;22.50;62.40;;;;;;4930425;29;20905;-77
2023/01/07 10:11:16;;;;;;;1.23;1.10;;;22.60;62.40;;;;;;4919623;29;20859;-77
2023/01/07 10:13:55;;;;;;;1.20;1.00;;;22.60;62.40;;;;;;4928339;29;20591;-77
2023/01/07 10:16:33;;;;;;;1.33;1.07;;;22.60;62.30;;;;;;4935845;29;20441;-77
2023/01/07 10:19:08;;;;;;;1.33;1.20;;;22.70;62.30;;;;;;4924986;29;20537;-76
2023/01/07 10:21:47;;;;;;;2.43;1.40;;;22.70;62.20;;;;;;4932984;29;20477;-76
2023/01/07 10:24:19;;;;;;;1.30;1.20;;;22.70;62.20;;;;;;4934494;29;20565;-77
2023/01/07 10:26:53;;;;;;;1.00;1.00;;;22.80;62.20;;;;;;4935177;29;20472;-76
2023/01/07 10:29:31;;;;;;;0.90;0.90;;;22.80;62.10;;;;;;4934164;29;20467;-76
2023/01/07 10:32:08;;;;;;;3.23;1.20;;;22.80;62.00;;;;;;4935942;29;20447;-76
2023/01/07 10:34:44;;;;;;;2.00;1.10;;;22.90;62.00;;;;;;4928463;29;20553;-76
2023/01/07 10:37:22;;;;;;;1.20;1.10;;;22.90;61.90;;;;;;4916838;29;20502;-76
2023/01/07 10:40:01;;;;;;;1.10;1.00;;;23.00;61.80;;;;;;4924393;29;20999;-76
2023/01/07 10:42:35;;;;;;;1.63;1.33;;;23.10;61.70;;;;;;4926194;29;20548;-76
2023/01/07 10:45:33;;;;;;;1.87;1.77;;;23.10;61.60;;;;;;4926704;29;20943;-76
2023/01/07 10:48:15;;;;;;;1.73;1.00;;;23.30;61.30;;;;;;4931201;29;20862;-76
2023/01/07 10:50:53;;;;;;;1.37;1.13;;;23.30;61.10;;;;;;4932009;29;20500;-76
2023/01/07 10:53:34;;;;;;;2.17;1.20;;;23.50;60.90;;;;;;4921800;29;20562;-76
2023/01/07 10:56:09;;;;;;;1.10;1.10;;;23.60;60.60;;;;;;4932235;29;20900;-76
2023/01/07 10:58:42;;;;;;;2.83;1.10;;;23.70;60.40;;;;;;4934779;29;20501;-76
2023/01/07 11:01:18;;;;;;;1.63;1.30;;;23.80;60.10;;;;;;4935216;29;20966;-76
2023/01/07 11:03:49;;;;;;;1.03;1.03;;;23.90;59.90;;;;;;4930631;29;20442;-76
2023/01/07 11:06:20;;;;;;;1.67;1.27;;;23.90;59.80;;;;;;4917078;29;20454;-76
2023/01/07 11:08:49;;;;;;;1.20;1.10;;;24.00;59.60;;;;;;4916208;29;20513;-76
2023/01/07 11:11:23;;;;;;;1.00;0.90;;;24.10;59.40;;;;;;4916305;29;20485;-76
2023/01/07 11:13:57;;;;;;;1.27;0.87;;;24.10;59.30;;;;;;4922496;29;20517;-76
2023/01/07 11:16:29;;;;;;;1.00;1.00;;;24.20;59.20;;;;;;4933271;29;20470;-76
2023/01/07 11:19:01;;;;;;;2.60;1.40;;;24.20;59.10;;;;;;4921237;29;20479;-76
2023/01/07 11:21:34;;;;;;;0.80;0.80;;;24.30;59.00;;;;;;4919464;29;20495;-76
2023/01/07 11:24:33;;;;;;;0.90;0.90;;;24.30;58.90;;;;;;4935289;29;20489;-76
2023/01/07 11:27:05;;;;;;;1.53;1.27;;;24.40;58.80;;;;;;4928579;29;20998;-76
2023/01/07 11:29:38;;;;;;;0.77;0.77;;;24.40;58.70;;;;;;4928070;29;20478;-76
2023/01/07 11:32:17;;;;;;;0.90;0.90;;;24.40;58.50;;;;;;4933168;29;20454;-76
2023/01/07 11:34:51;;;;;;;0.90;0.90;;;24.50;58.50;;;;;;4936498;29;20964;-76
2023/01/07 11:37:31;;;;;;;0.90;0.90;;;24.50;58.40;;;;;;4922495;29;20565;-76
2023/01/07 11:40:03;;;;;;;0.80;0.80;;;24.50;58.30;;;;;;4938990;29;20445;-76
2023/01/07 11:42:40;;;;;;;0.80;0.80;;;24.40;58.50;;;;;;4935876;29;20870;-76
2023/01/07 11:45:14;;;;;;;1.27;0.90;;;24.40;58.50;;;;;;4936679;29;20520;-76
2023/01/07 11:47:48;;;;;;;0.87;0.83;;;24.50;58.50;;;;;;4934276;29;20518;-76
2023/01/07 11:50:25;;;;;;;0.93;0.83;;;24.50;58.40;;;;;;4930625;29;20558;-76
2023/01/07 11:52:59;;;;;;;1.93;1.13;;;24.50;58.20;;;;;;4933439;29;20565;-76
2023/01/07 11:55:29;;;;;;;0.93;0.93;;;24.50;58.30;;;;;;4931756;29;20462;-76
2023/01/07 11:57:58;;;;;;;1.00;1.00;;;24.50;58.40;;;;;;4932746;29;20479;-76
2023/01/07 12:00:46;;;;;;;0.80;0.80;;;24.60;58.30;;;;;;4919225;29;20464;-76
2023/01/07 12:03:14;;;;;;;1.03;0.80;;;24.70;58.10;;;;;;4919372;29;20860;-76
2023/01/07 12:05:44;;;;;;;1.00;1.00;;;24.70;57.80;;;;;;4938069;29;20443;-76
2023/01/07 12:08:20;;;;;;;1.17;0.87;;;24.70;58.00;;;;;;4937231;29;20983;-76
2023/01/07 12:10:56;;;;;;;1.00;0.90;;;24.70;57.90;;;;;;4930082;29;20453;-76
2023/01/07 12:13:27;;;;;;;0.83;0.83;;;24.70;57.70;;;;;;4924294;29;20502;-76
2023/01/07 12:15:58;;;;;;;1.30;1.20;;;24.60;57.70;;;;;;4931138;29;20463;-76
2023/01/07 12:18:50;;;;;;;1.53;1.00;;;24.50;58.00;;;;;;4937903;29;20561;-76
2023/01/07 12:21:35;;;;;;;0.90;0.90;;;24.40;58.40;;;;;;4920158;29;20463;-76
2023/01/07 12:24:45;;;;;;;1.13;1.13;;;24.50;58.40;;;;;;4933019;29;20505;-76
2023/01/07 12:27:24;;;;;;;0.70;0.70;;;24.60;58.20;;;;;;4933710;29;20993;-77
2023/01/07 12:30:25;;;;;;;0.70;0.60;;;24.70;58.00;;;;;;4933649;29;20459;-76
2023/01/07 12:33:03;;;;;;;0.67;0.67;;;24.80;57.80;;;;;;4937723;29;20892;-76
2023/01/07 12:35:36;;;;;;;0.87;0.87;;;24.80;57.70;;;;;;4921961;29;20911;-76
2023/01/07 12:38:11;;;;;;;0.70;0.70;;;24.90;57.60;;;;;;4937859;29;20554;-76
2023/01/07 12:40:44;;;;;;;0.83;0.83;;;24.90;57.40;;;;;;4937388;29;20478;-76
2023/01/07 12:43:18;;;;;;;1.03;1.00;;;25.00;57.30;;;;;;4930412;29;20932;-76
2023/01/07 12:45:52;;;;;;;0.90;0.90;;;25.10;57.20;;;;;;4920531;29;20550;-76
2023/01/07 12:48:27;;;;;;;0.63;0.63;;;25.10;57.00;;;;;;4918550;29;20440;-76
2023/01/07 12:50:59;;;;;;;0.70;0.70;;;25.10;57.00;;;;;;4928819;29;20558;-76
2023/01/07 12:53:36;;;;;;;0.77;0.77;;;25.10;56.90;;;;;;4931374;29;20469;-76
2023/01/07 12:56:11;;;;;;;1.43;0.90;;;25.10;56.90;;;;;;4926748;29;20497;-76
2023/01/07 12:58:47;;;;;;;1.10;1.00;;;25.20;56.80;;;;;;4937141;29;20899;-76
2023/01/07 13:01:28;;;;;;;0.80;0.80;;;25.20;56.80;;;;;;4936262;29;21097;-78
2023/01/07 13:04:09;;;;;;;0.60;0.60;;;25.20;56.70;;;;;;4929924;29;20939;-76
2023/01/07 13:06:44;;;;;;;1.30;1.20;;;25.20;56.70;;;;;;4937069;29;20452;-76
2023/01/07 13:09:26;;;;;;;0.73;0.73;;;25.20;56.70;;;;;;4937443;29;20490;-76
2023/01/07 13:15:14;;;;;;;0.83;0.70;;;25.20;56.70;;;;;;4933228;29;20463;-76
2023/01/07 13:17:43;;;;;;;0.80;0.80;;;25.20;56.70;;;;;;4931130;29;20964;-77
2023/01/07 13:20:12;;;;;;;0.70;0.70;;;25.20;56.70;;;;;;4930807;29;20857;-76